Time;durP1;ratioP1;P1;durP2;ratioP2;P2;SDS_P1;SDS_P2;PMS_P1;PMS_P2;Temp;Humidity;BMP_temperature;BMP_pressure;BME280_temperature;BME280_humidity;BME280_pressure;Samples;Min_cycle;Max_cycle;Signal;HPM_P1;HPM_P2
2023/07/09 00:00:11;;;;;;;;;10.25;10.25;;;;;29.82;36.96;101149.25;5080661;28;45544;-64
2023/07/09 00:02:36;;;;;;;;;6.75;6.75;;;;;29.78;36.97;101145.97;5079465;28;45210;-64
2023/07/09 00:05:01;;;;;;;;;11.75;9.75;;;;;29.78;36.97;101148.66;5080377;28;48665;-64
2023/07/09 00:07:30;;;;;;;;;12.00;12.00;;;;;29.75;36.89;101151.66;5081113;28;45459;-63
2023/07/09 00:09:56;;;;;;;;;9.00;8.25;;;;;29.73;36.88;101159.06;5080486;28;45343;-63
2023/07/09 00:12:22;;;;;;;;;9.25;8.25;;;;;29.71;36.75;101152.06;5080674;28;45364;-63
2023/07/09 00:14:47;;;;;;;;;12.75;11.00;;;;;29.68;36.98;101158.63;5079511;28;45457;-64
2023/07/09 00:17:42;;;;;;;;;9.75;9.25;;;;;29.64;37.39;101158.03;5080866;28;45181;-63
2023/07/09 00:20:13;;;;;;;;;7.75;7.75;;;;;29.63;37.21;101156.31;5072476;28;48330;-63
2023/07/09 00:22:51;;;;;;;;;11.25;10.00;;;;;29.61;37.33;101162.84;5075727;28;45299;-64
2023/07/09 00:25:19;;;;;;;;;11.00;10.00;;;;;29.52;37.32;101148.28;5070788;28;45280;-64
2023/07/09 00:27:48;;;;;;;;;9.00;9.00;;;;;29.54;37.15;101159.84;5075480;28;45248;-63
2023/07/09 00:30:19;;;;;;;;;12.75;12.75;;;;;29.52;37.52;101161.81;5059985;28;45887;-63
2023/07/09 00:32:45;;;;;;;;;10.00;10.00;;;;;29.50;37.32;101167.38;5059905;28;45205;-63
2023/07/09 00:35:15;;;;;;;;;12.25;10.50;;;;;29.44;38.10;101159.78;5068466;28;45240;-63
2023/07/09 00:37:41;;;;;;;;;12.00;11.25;;;;;29.43;38.24;101162.63;5058949;28;45336;-63
2023/07/09 00:40:14;;;;;;;;;9.50;9.25;;;;;29.38;37.87;101170.31;5059745;28;46409;-63
2023/07/09 00:42:44;;;;;;;;;9.50;9.50;;;;;29.36;37.95;101173.16;5058469;28;45411;-63
2023/07/09 00:45:22;;;;;;;;;12.00;10.75;;;;;29.33;38.05;101171.56;5059008;28;45259;-63
2023/07/09 00:48:00;;;;;;;;;12.00;10.75;;;;;29.29;38.11;101169.25;5058549;28;45413;-64
2023/07/09 00:50:33;;;;;;;;;12.00;10.25;;;;;29.27;37.97;101168.50;5059599;28;46162;-64
2023/07/09 00:53:07;;;;;;;;;21.50;17.50;;;;;29.21;38.37;101171.72;5071372;28;45501;-64
2023/07/09 00:55:38;;;;;;;;;17.50;14.75;;;;;29.19;38.24;101177.28;5080243;28;45285;-64
2023/07/09 00:58:08;;;;;;;;;39.00;28.50;;;;;29.19;38.33;101185.41;5078544;28;45500;-64
2023/07/09 01:00:47;;;;;;;;;22.25;17.75;;;;;29.17;38.46;101187.41;5070012;28;47300;-64
2023/07/09 01:03:21;;;;;;;;;42.00;30.50;;;;;29.12;38.71;101185.09;5072201;28;45283;-64
2023/07/09 01:05:51;;;;;;;;;11.75;11.75;;;;;29.12;38.40;101182.38;5066510;28;45342;-64
2023/07/09 01:08:18;;;;;;;;;27.25;20.00;;;;;29.09;38.34;101188.03;5074931;28;45303;-64
2023/07/09 01:10:43;;;;;;;;;19.75;17.25;;;;;29.07;39.02;101189.16;5058097;28;46122;-64
2023/07/09 01:13:08;;;;;;;;;13.50;12.00;;;;;29.06;38.49;101188.31;5059195;28;45248;-64
2023/07/09 01:15:37;;;;;;;;;9.50;9.00;;;;;29.05;38.50;101189.31;5058427;28;45971;-64
2023/07/09 01:18:03;;;;;;;;;12.50;11.00;;;;;29.03;38.44;101194.84;5074487;28;45272;-64
2023/07/09 01:20:28;;;;;;;;;13.25;13.25;;;;;29.03;38.70;101199.38;5063951;28;48376;-64
2023/07/09 01:22:56;;;;;;;;;12.50;11.75;;;;;28.97;38.69;101186.41;5059395;28;45151;-64
2023/07/09 01:25:23;;;;;;;;;13.50;12.00;;;;;28.98;38.93;101190.81;5058264;28;45515;-64
2023/07/09 01:27:49;;;;;;;;;10.00;10.00;;;;;28.96;38.83;101187.41;5059143;28;45335;-64
2023/07/09 01:30:39;;;;;;;;;10.50;10.50;;;;;28.94;38.90;101192.06;5057871;28;46154;-64
2023/07/09 01:33:06;;;;;;;;;10.00;10.00;;;;;28.90;38.96;101190.63;5078339;28;45284;-64
2023/07/09 01:35:33;;;;;;;;;10.75;9.00;;;;;28.88;38.97;101192.59;5078361;28;45303;-65
2023/07/09 01:38:00;;;;;;;;;11.25;10.75;;;;;28.85;38.89;101186.47;5079549;28;45518;-64
2023/07/09 01:40:27;;;;;;;;;10.50;10.50;;;;;28.83;39.19;101191.13;5079309;28;45306;-64
2023/07/09 01:42:55;;;;;;;;;17.75;12.25;;;;;28.82;38.97;101200.22;5078097;28;45294;-64
2023/07/09 01:45:21;;;;;;;;;13.25;11.50;;;;;28.82;39.59;101202.09;5078121;27;45359;-64
2023/07/09 01:47:46;;;;;;;;;11.50;10.50;;;;;28.79;39.46;101197.81;5079474;28;45470;-64
2023/07/09 01:50:12;;;;;;;;;15.00;13.00;;;;;28.79;39.02;101202.34;5078510;28;46210;-64
2023/07/09 01:52:41;;;;;;;;;16.75;14.50;;;;;28.77;39.54;101196.22;5069266;28;45356;-64
2023/07/09 01:55:10;;;;;;;;;12.00;12.00;;;;;28.78;39.40;101209.59;5080101;27;45245;-64
2023/07/09 01:57:36;;;;;;;;;13.00;10.75;;;;;28.75;39.56;101209.84;5082662;28;45521;-64
2023/07/09 02:00:10;;;;;;;;;14.25;12.75;;;;;28.73;39.66;101216.38;5082619;28;46894;-64
2023/07/09 02:02:38;;;;;;;;;11.50;11.50;;;;;28.69;39.85;101215.75;5082859;28;45303;-64
2023/07/09 02:05:04;;;;;;;;;11.00;9.25;;;;;28.64;39.73;101209.84;5082743;28;45422;-64
2023/07/09 02:07:30;;;;;;;;;12.00;9.50;;;;;28.62;40.23;101212.69;5081526;28;46483;-64
2023/07/09 02:09:55;;;;;;;;;11.75;11.75;;;;;28.61;39.81;101215.53;5082008;28;53414;-64
2023/07/09 02:12:20;;;;;;;;;9.50;9.50;;;;;28.56;39.72;101215.91;5082507;28;45343;-64
2023/07/09 02:14:47;;;;;;;;;11.00;10.00;;;;;28.58;40.02;101221.19;5082655;28;45409;-64
2023/07/09 02:17:14;;;;;;;;;12.75;11.25;;;;;28.54;39.76;101225.97;5082731;28;45165;-64
2023/07/09 02:19:40;;;;;;;;;10.75;10.75;;;;;28.52;40.14;101219.88;5082300;28;45306;-64
2023/07/09 02:22:07;;;;;;;;;11.00;10.25;;;;;28.52;39.93;101222.56;5069668;28;45405;-64
2023/07/09 02:24:32;;;;;;;;;9.25;9.25;;;;;28.49;40.10;101218.28;5062101;28;45371;-64
2023/07/09 02:26:59;;;;;;;;;11.00;10.50;;;;;28.47;40.35;101213.97;5061707;28;45474;-64
2023/07/09 02:29:27;;;;;;;;;12.25;11.50;;;;;28.44;40.34;101216.94;5061881;28;45465;-64
2023/07/09 02:31:54;;;;;;;;;11.00;11.00;;;;;28.42;39.93;101221.63;5061947;28;45399;-64
2023/07/09 02:34:20;;;;;;;;;9.75;9.75;;;;;28.37;40.30;101212.03;5062190;28;45241;-64
2023/07/09 02:36:45;;;;;;;;;12.50;10.00;;;;;28.38;40.48;101213.75;5061900;28;45513;-64
2023/07/09 02:39:13;;;;;;;;;11.75;10.75;;;;;28.36;40.26;101210.34;5060485;28;48447;-64
2023/07/09 02:41:41;;;;;;;;;12.50;10.25;;;;;28.34;40.25;101211.41;5061617;28;45379;-64
2023/07/09 02:44:07;;;;;;;;;10.50;9.00;;;;;28.32;39.99;101211.53;5062225;28;45275;-64
2023/07/09 02:46:33;;;;;;;;;11.75;9.50;;;;;28.31;40.50;101217.94;5060335;28;45677;-64
2023/07/09 02:48:58;;;;;;;;;12.00;10.00;;;;;28.29;40.65;101219.91;5061838;28;45246;-64
2023/07/09 02:51:26;;;;;;;;;8.50;8.00;;;;;28.28;40.49;101211.94;5061544;28;45200;-65
2023/07/09 02:53:53;;;;;;;;;11.00;11.00;;;;;28.22;40.84;101216.84;5075857;28;45332;-64
2023/07/09 02:56:19;;;;;;;;;12.00;11.00;;;;;28.18;40.87;101215.38;5061492;28;45444;-64
2023/07/09 02:58:44;;;;;;;;;9.00;9.00;;;;;28.20;40.45;101221.53;5059966;28;46523;-64
2023/07/09 03:01:09;;;;;;;;;10.25;9.00;;;;;28.17;40.51;101227.16;5061585;28;45405;-65
2023/07/09 03:03:35;;;;;;;;;9.75;9.00;;;;;28.16;40.55;101230.00;5063878;28;45461;-64
2023/07/09 03:06:00;;;;;;;;;10.50;10.50;;;;;28.15;40.46;101233.69;5061519;28;45595;-65
2023/07/09 03:08:25;;;;;;;;;11.75;11.75;;;;;28.15;40.98;101230.97;5059497;28;47913;-64
2023/07/09 03:10:51;;;;;;;;;11.00;11.00;;;;;28.13;40.55;101235.66;5061385;28;45624;-64
2023/07/09 03:13:16;;;;;;;;;11.00;10.50;;;;;28.11;40.34;101229.53;5061339;28;45327;-65
2023/07/09 03:15:41;;;;;;;;;11.75;11.00;;;;;28.05;40.65;101223.63;5060086;28;45549;-64
2023/07/09 03:18:06;;;;;;;;;12.75;11.50;;;;;28.08;40.30;101235.19;5059966;28;45564;-64
2023/07/09 03:20:32;;;;;;;;;10.50;8.75;;;;;28.05;40.63;101239.00;5067545;28;45350;-64
2023/07/09 03:22:57;;;;;;;;;9.25;7.75;;;;;28.03;40.79;101241.78;5061998;28;45229;-64
2023/07/09 03:25:22;;;;;;;;;10.50;8.00;;;;;28.01;40.89;101242.88;5068928;28;46120;-64
2023/07/09 03:27:48;;;;;;;;;10.00;10.00;;;;;28.01;40.80;101251.84;5075333;28;48332;-64
2023/07/09 03:30:14;;;;;;;;;9.75;8.75;;;;;27.98;40.46;101246.69;5061371;28;45274;-64
2023/07/09 03:32:39;;;;;;;;;8.50;8.50;;;;;27.98;40.58;101241.28;5061233;28;45213;-64
2023/07/09 03:35:05;;;;;;;;;10.50;10.50;;;;;27.95;40.97;101238.84;5061098;28;45385;-64
2023/07/09 03:37:30;;;;;;;;;11.00;11.00;;;;;27.97;40.84;101241.41;5059475;28;47266;-64
2023/07/09 03:39:55;;;;;;;;;12.00;9.75;;;;;27.94;41.05;101255.13;5059497;28;53937;-64
2023/07/09 03:42:20;;;;;;;;;10.00;10.00;;;;;27.92;40.88;101244.47;5060630;28;45240;-64
2023/07/09 03:44:46;;;;;;;;;13.25;9.75;;;;;27.90;41.01;101251.84;5060833;28;45216;-64
2023/07/09 03:47:11;;;;;;;;;12.50;9.25;;;;;27.87;41.37;101252.97;5060779;28;46288;-64
2023/07/09 03:49:37;;;;;;;;;11.00;9.50;;;;;27.84;41.25;101246.94;5068207;28;45877;-64
2023/07/09 03:52:03;;;;;;;;;8.00;8.00;;;;;27.81;40.98;101245.34;5066115;28;45466;-64
2023/07/09 03:54:28;;;;;;;;;12.00;9.75;;;;;27.80;41.29;101251.72;5067625;28;45469;-64
2023/07/09 03:56:54;;;;;;;;;13.00;12.25;;;;;27.78;41.17;101253.66;5074205;28;45596;-64
2023/07/09 03:59:19;;;;;;;;;11.25;9.50;;;;;27.77;40.89;101256.50;5060787;28;45253;-64
2023/07/09 04:01:45;;;;;;;;;5.50;5.50;;;;;27.72;40.92;101254.16;5060759;28;45241;-64
2023/07/09 04:04:11;;;;;;;;;13.75;12.00;;;;;27.72;41.18;101255.03;5060722;28;45377;-64
2023/07/09 04:06:37;;;;;;;;;14.25;11.00;;;;;27.70;41.22;101266.94;5059183;28;48296;-64
2023/07/09 04:09:02;;;;;;;;;12.50;10.25;;;;;27.65;41.31;101259.19;5067255;28;45307;-64
2023/07/09 04:11:27;;;;;;;;;11.75;10.25;;;;;27.66;41.52;101257.34;5059107;28;45261;-64
2023/07/09 04:13:53;;;;;;;;;10.75;9.25;;;;;27.62;41.58;101258.56;5067054;28;45275;-64
2023/07/09 04:16:18;;;;;;;;;10.00;10.00;;;;;27.61;41.46;101259.53;5073468;28;48275;-64
2023/07/09 04:18:43;;;;;;;;;12.00;10.00;;;;;27.59;41.35;101269.63;5059458;28;45227;-64
2023/07/09 04:21:09;;;;;;;;;10.00;10.00;;;;;27.55;41.76;101261.75;5066856;28;45596;-64
2023/07/09 04:23:34;;;;;;;;;10.25;10.25;;;;;27.55;41.09;101269.00;5060463;28;45737;-64
2023/07/09 04:26:02;;;;;;;;;10.50;9.00;;;;;27.53;41.46;101265.53;5060051;28;45336;-64
2023/07/09 04:28:28;;;;;;;;;10.25;10.25;;;;;27.48;41.31;101252.41;5066447;28;45461;-64
2023/07/09 04:30:53;;;;;;;;;11.00;10.50;;;;;27.49;41.71;101261.38;5060128;28;45307;-64
2023/07/09 04:33:20;;;;;;;;;11.25;9.75;;;;;27.49;41.55;101267.63;5060323;28;45422;-64
2023/07/09 04:35:46;;;;;;;;;14.25;12.50;;;;;27.44;41.89;101261.72;5058634;28;48111;-64
2023/07/09 04:38:13;;;;;;;;;10.25;10.25;;;;;27.43;41.61;101262.69;5049649;28;45352;-64
2023/07/09 04:40:38;;;;;;;;;11.25;10.00;;;;;27.44;41.97;101263.56;5059935;28;45496;-64
2023/07/09 04:43:03;;;;;;;;;9.00;9.00;;;;;27.41;41.87;101265.53;5058559;28;45455;-64
2023/07/09 04:45:29;;;;;;;;;10.50;10.50;;;;;27.37;41.72;101261.31;5059844;28;45319;-64
2023/07/09 04:47:54;;;;;;;;;10.75;9.25;;;;;27.36;41.45;101258.75;5060141;28;45370;-64
2023/07/09 04:50:19;;;;;;;;;9.50;7.75;;;;;27.35;41.40;101257.88;5072822;28;45309;-64
2023/07/09 04:52:44;;;;;;;;;15.75;10.25;;;;;27.33;41.92;101264.34;5070850;28;51123;-64
2023/07/09 04:55:10;;;;;;;;;9.75;8.50;;;;;27.31;41.63;101260.91;5078584;28;47488;-64
2023/07/09 04:57:35;;;;;;;;;11.50;9.50;;;;;27.29;41.90;101258.34;5080157;28;45160;-64
2023/07/09 05:00:04;;;;;;;;;9.00;8.50;;;;;27.28;42.29;101262.00;5080256;28;45374;-64
2023/07/09 05:02:30;;;;;;;;;9.50;9.00;;;;;27.24;42.28;101249.75;5079004;28;46354;-64
2023/07/09 05:04:55;;;;;;;;;9.25;9.25;;;;;27.25;42.19;101255.00;5079737;28;45374;-64
2023/07/09 05:07:20;;;;;;;;;11.00;10.50;;;;;27.21;42.18;101242.75;5080220;28;45290;-64
2023/07/09 05:09:46;;;;;;;;;14.00;11.00;;;;;27.21;41.69;101244.59;5079646;28;45468;-64
2023/07/09 05:12:11;;;;;;;;;10.50;9.75;;;;;27.20;42.34;101242.88;5079880;28;45318;-64
2023/07/09 05:14:36;;;;;;;;;11.00;8.75;;;;;27.17;42.49;101243.97;5078066;28;47623;-64
2023/07/09 05:17:02;;;;;;;;;8.50;7.25;;;;;27.18;42.17;101245.69;5079950;28;45358;-64
2023/07/09 05:19:27;;;;;;;;;8.25;8.00;;;;;27.19;41.92;101252.78;5079962;28;45643;-64
2023/07/09 05:21:52;;;;;;;;;11.50;8.50;;;;;27.18;42.41;101250.22;5069041;28;45270;-64
2023/07/09 05:24:18;;;;;;;;;10.00;9.50;;;;;27.16;41.73;101247.63;5058027;28;49703;-64
2023/07/09 05:26:43;;;;;;;;;9.00;8.00;;;;;27.17;41.69;101245.78;5057872;28;45894;-64
2023/07/09 05:29:09;;;;;;;;;8.00;8.00;;;;;27.16;41.91;101242.25;5059526;28;45308;-64
2023/07/09 05:31:36;;;;;;;;;9.50;8.00;;;;;27.16;41.73;101236.84;5062385;28;45472;-64
2023/07/09 05:34:01;;;;;;;;;9.75;7.25;;;;;27.16;42.19;101231.47;5061649;28;48190;-64
2023/07/09 05:36:28;;;;;;;;;6.75;6.75;;;;;27.13;41.99;101231.72;5062896;28;45282;-64
2023/07/09 05:38:54;;;;;;;;;12.50;10.75;;;;;27.14;41.85;101237.94;5061792;28;45332;-64
2023/07/09 05:41:20;;;;;;;;;8.75;8.25;;;;;27.14;42.13;101249.59;5062516;28;45280;-64
2023/07/09 05:43:45;;;;;;;;;8.00;8.00;;;;;27.07;42.18;101238.41;5062717;28;45584;-64
2023/07/09 05:46:13;;;;;;;;;8.00;6.50;;;;;27.13;41.45;101247.00;5062948;28;45322;-64
2023/07/09 05:48:38;;;;;;;;;6.25;6.25;;;;;27.14;41.78;101243.34;5062822;28;45232;-63
2023/07/09 05:51:04;;;;;;;;;7.75;7.50;;;;;27.11;41.95;101244.44;5061498;28;45297;-62
2023/07/09 05:53:29;;;;;;;;;6.00;5.75;;;;;27.13;42.22;101238.91;5079927;28;45531;-65
2023/07/09 05:55:56;;;;;;;;;7.75;7.75;;;;;27.14;41.67;101254.13;5082944;28;45421;-65
2023/07/09 05:58:22;;;;;;;;;10.50;9.50;;;;;27.14;42.19;101251.44;5081464;28;45318;-63
2023/07/09 06:00:56;;;;;;;;;17.75;16.75;;;;;27.18;41.76;101255.59;5064678;28;45546;-63
2023/07/09 06:03:23;;;;;;;;;10.00;8.00;;;;;27.18;41.76;101250.22;5081331;28;48183;-63
2023/07/09 06:05:49;;;;;;;;;3.50;3.50;;;;;27.20;41.85;101249.13;5071267;28;45432;-63
2023/07/09 06:08:20;;;;;;;;;8.25;8.00;;;;;27.22;41.90;101239.06;5061156;28;45453;-63
2023/07/09 06:10:57;;;;;;;;;10.50;7.25;;;;;27.23;41.57;101231.84;5060902;28;45392;-64
2023/07/09 06:13:24;;;;;;;;;9.25;7.50;;;;;27.24;41.59;101233.56;5060653;28;46601;-63
2023/07/09 06:15:52;;;;;;;;;9.00;7.75;;;;;27.28;41.72;101237.72;5060940;28;45457;-63
2023/07/09 06:18:18;;;;;;;;;11.00;8.00;;;;;27.20;42.20;101222.13;5082771;28;45223;-63
2023/07/09 06:20:55;;;;;;;;;7.00;6.75;;;;;27.30;42.04;101230.38;5081977;28;45436;-63
2023/07/09 06:23:21;;;;;;;;;9.00;8.00;;;;;27.35;41.54;101251.63;5060751;28;46595;-64
2023/07/09 06:25:47;;;;;;;;;8.50;8.00;;;;;27.35;42.07;101267.81;5060690;28;45442;-63
2023/07/09 06:28:17;;;;;;;;;8.25;8.25;;;;;27.37;41.54;101273.94;5062257;28;45378;-63
2023/07/09 06:30:47;;;;;;;;;8.25;8.25;;;;;27.31;41.92;101266.31;5062044;28;45381;-63
2023/07/09 06:33:15;;;;;;;;;7.00;6.50;;;;;27.40;41.36;101276.44;5060742;28;48391;-63
2023/07/09 06:35:49;;;;;;;;;8.00;8.00;;;;;27.45;41.71;101271.53;5060418;28;45319;-63
2023/07/09 06:38:19;;;;;;;;;8.50;7.00;;;;;27.46;41.83;101278.66;5060738;28;45467;-64
2023/07/09 06:40:45;;;;;;;;;8.00;8.00;;;;;27.49;41.86;101286.50;5058474;28;45439;-64
2023/07/09 06:43:11;;;;;;;;;9.75;8.50;;;;;27.52;41.55;101294.38;5070612;28;46613;-63
2023/07/09 06:45:37;;;;;;;;;8.75;8.75;;;;;27.54;42.09;101294.25;5062124;28;45399;-64
2023/07/09 06:48:03;;;;;;;;;6.25;6.00;;;;;27.51;41.40;101281.88;5060626;28;45272;-64
2023/07/09 06:50:29;;;;;;;;;9.25;7.00;;;;;27.60;42.10;101284.81;5080118;28;45320;-64
2023/07/09 06:52:54;;;;;;;;;8.75;7.25;;;;;27.62;42.18;101282.84;5080599;28;46975;-64
2023/07/09 06:55:20;;;;;;;;;7.00;7.00;;;;;27.64;41.60;101284.44;5081801;28;45260;-64
2023/07/09 06:57:45;;;;;;;;;9.00;8.25;;;;;27.63;41.87;101281.88;5080558;27;45293;-64
2023/07/09 07:00:11;;;;;;;;;7.50;7.50;;;;;27.68;41.62;101279.69;5061785;28;45239;-64
2023/07/09 07:02:36;;;;;;;;;7.00;6.25;;;;;27.69;41.53;101282.25;5061691;28;46289;-64
2023/07/09 07:05:02;;;;;;;;;8.00;8.00;;;;;27.69;41.67;101273.31;5060102;28;45385;-64
2023/07/09 07:07:28;;;;;;;;;6.75;5.25;;;;;27.72;41.82;101275.75;5061756;28;45320;-65
2023/07/09 07:09:53;;;;;;;;;8.50;7.25;;;;;27.74;41.60;101280.03;5075593;28;45648;-64
2023/07/09 07:12:27;;;;;;;;;9.00;8.25;;;;;27.74;41.55;101280.03;5068631;28;47163;-64
2023/07/09 07:14:53;;;;;;;;;8.75;7.00;;;;;27.75;41.63;101289.03;5061310;28;45408;-64
2023/07/09 07:17:19;;;;;;;;;7.75;7.75;;;;;27.80;41.84;101286.81;5060208;28;45296;-64
2023/07/09 07:19:44;;;;;;;;;7.75;7.75;;;;;27.78;41.37;101291.47;5062006;28;45204;-64
2023/07/09 07:22:10;;;;;;;;;9.25;7.00;;;;;27.83;41.43;101304.63;5076717;28;47281;-64
2023/07/09 07:24:35;;;;;;;;;8.50;8.25;;;;;27.85;41.51;101302.66;5061267;28;45224;-64
2023/07/09 07:27:00;;;;;;;;;8.25;8.25;;;;;27.87;41.45;101311.47;5059645;28;45236;-64
2023/07/09 07:29:26;;;;;;;;;7.50;7.50;;;;;27.86;41.32;101318.75;5061075;28;45558;-64
2023/07/09 07:31:51;;;;;;;;;8.00;7.00;;;;;27.87;41.25;101322.28;5069066;28;50117;-64
2023/07/09 07:34:16;;;;;;;;;7.25;6.75;;;;;27.94;41.67;101333.44;5060980;28;45242;-64
2023/07/09 07:36:42;;;;;;;;;9.00;7.75;;;;;27.94;41.33;101334.31;5061033;28;45276;-64
2023/07/09 07:39:07;;;;;;;;;11.75;9.00;;;;;27.98;41.55;101334.94;5060687;28;54960;-64
2023/07/09 07:41:32;;;;;;;;;10.75;10.75;;;;;28.02;41.68;101331.88;5060522;28;47662;-64
2023/07/09 07:43:58;;;;;;;;;16.00;14.00;;;;;28.03;41.50;101324.63;5060717;28;45352;-64
2023/07/09 07:46:23;;;;;;;;;14.75;10.75;;;;;28.07;41.55;101336.09;5059784;28;45353;-63
2023/07/09 07:48:48;;;;;;;;;13.75;12.50;;;;;28.09;41.25;101351.19;5060677;28;45481;-63
2023/07/09 07:51:14;;;;;;;;;10.00;8.25;;;;;28.11;41.68;101367.28;5059568;28;48266;-63
2023/07/09 07:53:39;;;;;;;;;8.75;8.00;;;;;28.12;41.37;101388.75;5079039;28;45465;-63
2023/07/09 07:56:04;;;;;;;;;14.50;10.50;;;;;28.13;41.29;101393.19;5079476;28;45306;-63
2023/07/09 07:58:31;;;;;;;;;9.75;8.25;;;;;28.15;41.23;101385.84;5080929;28;45268;-63
2023/07/09 08:00:57;;;;;;;;;9.75;8.50;;;;;28.16;41.02;101386.69;5079857;28;45402;-63
2023/07/09 08:03:23;;;;;;;;;11.00;11.00;;;;;28.12;40.85;101380.66;5079535;28;45367;-64
2023/07/09 08:05:49;;;;;;;;;7.25;7.25;;;;;28.12;41.13;101386.06;5079652;28;45174;-64
2023/07/09 08:08:15;;;;;;;;;21.50;20.00;;;;;28.12;41.55;101386.06;5079395;28;45275;-63
2023/07/09 08:10:40;;;;;;;;;10.25;7.25;;;;;28.07;40.96;101372.06;5080464;28;45229;-64
2023/07/09 08:13:07;;;;;;;;;7.00;7.00;;;;;28.04;41.18;101358.81;5060783;28;45482;-64
2023/07/09 08:15:34;;;;;;;;;9.50;9.50;;;;;28.05;41.09;101358.69;5060638;28;45542;-63
2023/07/09 08:17:59;;;;;;;;;7.00;7.00;;;;;28.03;41.46;101344.44;5060268;28;45389;-64
2023/07/09 08:20:25;;;;;;;;;7.00;6.25;;;;;28.02;41.19;101328.31;5066617;28;46503;-64
2023/07/09 08:22:50;;;;;;;;;6.75;6.75;;;;;27.97;40.91;101322.41;5077909;27;45277;-63
2023/07/09 08:25:15;;;;;;;;;8.00;8.00;;;;;27.95;40.90;101324.38;5060306;28;45430;-64
2023/07/09 08:27:41;;;;;;;;;8.00;8.00;;;;;27.93;41.24;101335.31;5059991;28;45359;-64
2023/07/09 08:30:07;;;;;;;;;9.25;8.25;;;;;27.88;41.61;101342.91;5060230;28;45456;-64
2023/07/09 08:32:32;;;;;;;;;5.50;5.50;;;;;27.86;40.99;101348.44;5060554;28;45261;-64
2023/07/09 08:34:58;;;;;;;;;11.00;10.25;;;;;27.84;41.03;101341.44;5066788;28;45248;-63
2023/07/09 08:37:23;;;;;;;;;7.75;7.75;;;;;27.79;41.16;101349.88;5059075;28;45368;-64
2023/07/09 08:39:48;;;;;;;;;8.75;6.25;;;;;27.77;41.07;101370.72;5066228;28;46850;-64
2023/07/09 08:42:21;;;;;;;;;8.00;8.00;;;;;27.75;41.05;101391.63;5077494;28;45218;-64
2023/07/09 08:45:16;;;;;;;;;8.25;6.50;;;;;27.74;40.94;101408.78;5080443;28;45252;-64
2023/07/09 08:48:00;;;;;;;;;6.25;6.25;;;;;27.71;41.19;101414.41;5078329;28;45484;-64
2023/07/09 08:50:35;;;;;;;;;8.50;8.50;;;;;27.68;41.47;101429.00;5077116;28;45326;-64
2023/07/09 08:53:01;;;;;;;;;9.75;7.00;;;;;27.69;40.97;101443.38;5078669;28;45378;-64
2023/07/09 08:55:40;;;;;;;;;5.00;5.00;;;;;27.68;41.42;101445.19;5080160;28;45520;-64
2023/07/09 08:58:12;;;;;;;;;6.25;6.25;;;;;27.65;41.02;101453.53;5078640;28;45182;-64
2023/07/09 09:00:48;;;;;;;;;9.00;9.00;;;;;27.65;41.15;101468.88;5080086;28;45587;-63
2023/07/09 09:03:29;;;;;;;;;8.00;8.00;;;;;27.66;41.17;101478.69;5079963;28;45257;-63
2023/07/09 09:05:55;;;;;;;;;7.25;7.25;;;;;27.66;41.17;101471.47;5082211;28;45321;-63
2023/07/09 09:08:40;;;;;;;;;9.75;9.75;;;;;27.66;41.16;101454.38;5083487;28;45295;-64
2023/07/09 09:11:31;;;;;;;;;9.25;8.25;;;;;27.64;41.65;101445.56;5081882;27;45496;-64
2023/07/09 09:14:03;;;;;;;;;9.00;9.00;;;;;27.65;41.52;101436.50;5061185;28;45354;-64
2023/07/09 09:16:32;;;;;;;;;9.25;7.75;;;;;27.64;41.44;101424.81;5078116;28;45276;-64
2023/07/09 09:19:00;;;;;;;;;11.75;11.75;;;;;27.63;41.42;101400.66;5063381;28;45444;-63
2023/07/09 09:21:32;;;;;;;;;12.75;10.50;;;;;27.62;41.61;101386.28;5071235;28;45937;-63
2023/07/09 09:24:01;;;;;;;;;8.50;8.00;;;;;27.62;41.61;101351.19;5063306;28;45216;-63
2023/07/09 09:26:31;;;;;;;;;11.00;11.00;;;;;27.62;41.39;101334.13;5061538;28;45519;-63
2023/07/09 09:28:57;;;;;;;;;8.50;8.50;;;;;27.61;41.45;101327.00;5073346;28;45659;-63
2023/07/09 09:31:26;;;;;;;;;9.50;9.50;;;;;27.57;41.55;101304.78;5061732;28;45865;-63
2023/07/09 09:33:52;;;;;;;;;10.00;9.25;;;;;27.55;41.48;101329.22;5062836;28;45435;-63
2023/07/09 09:36:26;;;;;;;;;10.00;9.25;;;;;27.53;41.45;101349.19;5063124;28;45443;-63
2023/07/09 09:38:52;;;;;;;;;8.50;7.25;;;;;27.52;41.63;101372.66;5061546;28;45592;-64
2023/07/09 09:41:30;;;;;;;;;10.00;10.00;;;;;27.53;41.51;101400.47;5061257;28;46948;-63
2023/07/09 09:43:57;;;;;;;;;11.25;10.25;;;;;27.51;41.64;101403.31;5076271;28;45569;-63
2023/07/09 09:46:27;;;;;;;;;7.00;5.25;;;;;27.46;42.03;101402.78;5062729;28;45339;-63
2023/07/09 09:48:59;;;;;;;;;12.00;9.00;;;;;27.50;41.60;101420.47;5062443;28;45546;-64
2023/07/09 09:51:26;;;;;;;;;11.50;8.00;;;;;27.47;41.67;101436.91;5062500;28;45648;-64
2023/07/09 09:53:57;;;;;;;;;8.00;7.00;;;;;27.44;41.88;101441.66;5083035;28;45274;-63
2023/07/09 09:56:29;;;;;;;;;8.75;8.75;;;;;27.44;42.44;101458.69;5081261;28;45260;-63
2023/07/09 09:58:57;;;;;;;;;10.25;9.00;;;;;27.43;42.06;101475.88;5082952;28;45286;-63
2023/07/09 10:01:32;;;;;;;;;9.00;9.00;;;;;27.41;42.24;101491.31;5082514;28;46141;-63
2023/07/09 10:03:59;;;;;;;;;14.75;14.25;;;;;27.41;42.11;101502.13;5082786;28;45193;-64
2023/07/09 10:06:33;;;;;;;;;16.25;14.00;;;;;27.41;41.98;101508.38;5081320;28;45399;-64
2023/07/09 10:09:14;;;;;;;;;14.00;14.00;;;;;27.41;41.54;101491.31;5082574;28;45380;-64
2023/07/09 10:12:02;;;;;;;;;11.50;11.50;;;;;27.41;41.82;101462.50;5081035;28;47927;-63
2023/07/09 10:14:54;;;;;;;;;10.75;10.50;;;;;27.40;42.33;101438.31;5081127;28;45277;-64
2023/07/09 10:17:33;;;;;;;;;10.75;10.75;;;;;27.40;42.05;101406.78;5082175;27;45327;-63
2023/07/09 10:20:04;;;;;;;;;11.75;10.00;;;;;27.40;42.30;101382.50;5081048;28;45449;-63
2023/07/09 10:22:53;;;;;;;;;10.25;10.00;;;;;27.42;41.94;101371.59;5067048;28;45421;-63
2023/07/09 10:25:37;;;;;;;;;10.50;10.00;;;;;27.43;42.48;101367.94;5060529;28;46309;-63
2023/07/09 10:28:14;;;;;;;;;9.75;9.75;;;;;27.47;42.34;101347.84;5061999;28;45227;-64
2023/07/09 10:31:11;;;;;;;;;11.25;10.75;;;;;27.51;42.41;101337.66;5061739;28;45401;-63
2023/07/09 10:33:54;;;;;;;;;12.50;11.50;;;;;27.55;42.55;101340.00;5061970;28;45342;-63
2023/07/09 10:36:26;;;;;;;;;12.00;12.00;;;;;27.61;42.57;101352.19;5069001;28;45346;-63
2023/07/09 10:38:54;;;;;;;;;7.50;7.00;;;;;27.64;42.91;101364.59;5082247;28;45560;-63
2023/07/09 10:41:21;;;;;;;;;11.25;9.75;;;;;27.66;42.56;101387.78;5080522;28;45447;-63
2023/07/09 10:43:54;;;;;;;;;12.50;12.00;;;;;27.73;42.50;101399.84;5080470;28;46745;-63
2023/07/09 10:46:31;;;;;;;;;12.25;8.75;;;;;27.77;42.52;101386.94;5080716;28;46094;-63
2023/07/09 10:48:58;;;;;;;;;10.75;9.00;;;;;27.85;42.75;101386.38;5082024;28;45387;-63
2023/07/09 10:51:31;;;;;;;;;9.50;9.50;;;;;27.94;42.41;101395.56;5071143;28;45185;-63
2023/07/09 10:54:04;;;;;;;;;11.50;9.75;;;;;28.01;42.85;101400.38;5069178;28;45316;-63
2023/07/09 10:56:37;;;;;;;;;7.50;7.50;;;;;28.09;42.56;101399.81;5081676;28;45532;-63
2023/07/09 10:59:14;;;;;;;;;9.75;8.25;;;;;28.19;42.53;101395.41;5082116;28;45489;-63
2023/07/09 11:01:45;;;;;;;;;7.25;7.25;;;;;28.31;42.04;101408.94;5081762;28;45616;-63
2023/07/09 11:04:25;;;;;;;;;11.25;9.00;;;;;28.45;42.40;101400.59;5080485;28;45970;-63
2023/07/09 11:06:55;;;;;;;;;7.50;6.50;;;;;28.61;42.39;101394.78;5081811;28;45362;-63
2023/07/09 11:09:32;;;;;;;;;11.25;8.00;;;;;28.79;42.33;101384.38;5080673;28;45194;-63
2023/07/09 11:12:03;;;;;;;;;11.25;9.25;;;;;29.01;42.40;101390.72;5081638;28;45218;-63
2023/07/09 11:14:40;;;;;;;;;4.50;3.25;;;;;29.25;42.64;101389.69;5080303;28;47823;-62
2023/07/09 11:17:11;;;;;;;;;9.25;8.50;;;;;29.48;42.50;101371.50;5081613;28;45256;-62
2023/07/09 11:19:42;;;;;;;;;8.00;6.75;;;;;29.76;42.56;101366.44;5081679;28;45304;-62
2023/07/09 11:22:37;;;;;;;;;6.75;6.75;;;;;30.05;42.43;101358.53;5061049;28;45569;-62